sensor_id;sensor_type;location;lat;lon;timestamp;P1;durP1;ratioP1;P2;durP2;ratioP2
21567;SDS011;10944;42.590;12.630;2023-01-20T00:00:40;14.90;;;5.97;;
21567;SDS011;10944;42.590;12.630;2023-01-20T00:03:05;15.90;;;5.90;;
21567;SDS011;10944;42.590;12.630;2023-01-20T00:05:31;17.13;;;6.00;;
21567;SDS011;10944;42.590;12.630;2023-01-20T00:07:57;20.53;;;9.57;;
21567;SDS011;10944;42.590;12.630;2023-01-20T00:10:23;20.30;;;10.30;;
21567;SDS011;10944;42.590;12.630;2023-01-20T00:12:48;19.23;;;10.33;;
21567;SDS011;10944;42.590;12.630;2023-01-20T00:15:14;22.70;;;10.60;;
21567;SDS011;10944;42.590;12.630;2023-01-20T00:17:40;20.97;;;10.50;;
21567;SDS011;10944;42.590;12.630;2023-01-20T00:20:05;21.07;;;10.73;;
21567;SDS011;10944;42.590;12.630;2023-01-20T00:22:32;20.17;;;9.77;;
21567;SDS011;10944;42.590;12.630;2023-01-20T00:24:58;18.10;;;9.57;;
21567;SDS011;10944;42.590;12.630;2023-01-20T00:27:23;20.07;;;8.90;;
21567;SDS011;10944;42.590;12.630;2023-01-20T00:29:49;18.90;;;8.90;;
21567;SDS011;10944;42.590;12.630;2023-01-20T00:32:15;25.03;;;8.77;;
21567;SDS011;10944;42.590;12.630;2023-01-20T00:34:41;23.73;;;9.00;;
21567;SDS011;10944;42.590;12.630;2023-01-20T00:37:07;17.90;;;8.97;;
21567;SDS011;10944;42.590;12.630;2023-01-20T00:39:32;20.83;;;9.27;;
21567;SDS011;10944;42.590;12.630;2023-01-20T00:41:58;17.80;;;8.53;;
21567;SDS011;10944;42.590;12.630;2023-01-20T00:44:24;18.27;;;9.03;;
21567;SDS011;10944;42.590;12.630;2023-01-20T00:46:49;23.67;;;8.63;;
21567;SDS011;10944;42.590;12.630;2023-01-20T00:49:15;19.10;;;8.67;;
21567;SDS011;10944;42.590;12.630;2023-01-20T00:51:41;16.30;;;8.27;;
21567;SDS011;10944;42.590;12.630;2023-01-20T00:54:06;19.53;;;8.50;;
21567;SDS011;10944;42.590;12.630;2023-01-20T00:56:32;18.77;;;9.03;;
21567;SDS011;10944;42.590;12.630;2023-01-20T00:58:57;22.67;;;9.33;;
21567;SDS011;10944;42.590;12.630;2023-01-20T01:01:23;24.60;;;9.33;;
21567;SDS011;10944;42.590;12.630;2023-01-20T01:03:51;19.67;;;9.10;;
21567;SDS011;10944;42.590;12.630;2023-01-20T01:06:18;28.27;;;8.90;;
21567;SDS011;10944;42.590;12.630;2023-01-20T01:08:44;18.10;;;7.97;;
21567;SDS011;10944;42.590;12.630;2023-01-20T01:11:11;16.93;;;8.40;;
21567;SDS011;10944;42.590;12.630;2023-01-20T01:13:37;19.10;;;7.43;;
21567;SDS011;10944;42.590;12.630;2023-01-20T01:16:04;17.33;;;7.60;;
21567;SDS011;10944;42.590;12.630;2023-01-20T01:18:34;18.23;;;7.00;;
21567;SDS011;10944;42.590;12.630;2023-01-20T01:21:04;13.20;;;6.63;;
21567;SDS011;10944;42.590;12.630;2023-01-20T01:23:34;17.13;;;5.97;;
21567;SDS011;10944;42.590;12.630;2023-01-20T01:26:00;14.03;;;6.13;;
21567;SDS011;10944;42.590;12.630;2023-01-20T01:28:26;17.40;;;6.37;;
21567;SDS011;10944;42.590;12.630;2023-01-20T01:30:51;13.20;;;5.97;;
21567;SDS011;10944;42.590;12.630;2023-01-20T01:33:17;17.13;;;5.90;;
21567;SDS011;10944;42.590;12.630;2023-01-20T01:35:43;12.90;;;5.50;;
21567;SDS011;10944;42.590;12.630;2023-01-20T01:38:17;12.80;;;5.27;;
21567;SDS011;10944;42.590;12.630;2023-01-20T01:40:47;14.87;;;5.53;;
21567;SDS011;10944;42.590;12.630;2023-01-20T01:43:57;11.40;;;5.20;;
21567;SDS011;10944;42.590;12.630;2023-01-20T01:46:23;12.47;;;5.10;;
21567;SDS011;10944;42.590;12.630;2023-01-20T01:48:49;15.63;;;4.80;;
21567;SDS011;10944;42.590;12.630;2023-01-20T01:51:18;12.83;;;5.47;;
21567;SDS011;10944;42.590;12.630;2023-01-20T01:53:52;12.83;;;5.17;;
21567;SDS011;10944;42.590;12.630;2023-01-20T01:56:21;10.60;;;4.53;;
21567;SDS011;10944;42.590;12.630;2023-01-20T01:58:50;10.17;;;4.23;;
21567;SDS011;10944;42.590;12.630;2023-01-20T02:01:17;11.30;;;4.37;;
21567;SDS011;10944;42.590;12.630;2023-01-20T02:03:49;12.27;;;4.37;;
21567;SDS011;10944;42.590;12.630;2023-01-20T02:06:23;9.00;;;4.17;;
21567;SDS011;10944;42.590;12.630;2023-01-20T02:08:52;12.17;;;4.00;;
21567;SDS011;10944;42.590;12.630;2023-01-20T02:11:17;10.20;;;3.77;;
21567;SDS011;10944;42.590;12.630;2023-01-20T02:13:43;8.27;;;3.73;;
21567;SDS011;10944;42.590;12.630;2023-01-20T02:22:00;9.03;;;3.33;;
21567;SDS011;10944;42.590;12.630;2023-01-20T02:35:45;15.37;;;4.10;;
21567;SDS011;10944;42.590;12.630;2023-01-20T02:43:47;10.10;;;3.27;;
21567;SDS011;10944;42.590;12.630;2023-01-20T02:52:00;13.03;;;3.30;;
21567;SDS011;10944;42.590;12.630;2023-01-20T02:54:31;8.87;;;3.50;;
21567;SDS011;10944;42.590;12.630;2023-01-20T02:57:01;9.93;;;3.30;;
21567;SDS011;10944;42.590;12.630;2023-01-20T02:59:31;9.43;;;3.00;;
21567;SDS011;10944;42.590;12.630;2023-01-20T03:02:03;8.60;;;3.00;;
21567;SDS011;10944;42.590;12.630;2023-01-20T03:04:44;9.93;;;3.03;;
21567;SDS011;10944;42.590;12.630;2023-01-20T03:07:18;9.50;;;2.70;;
21567;SDS011;10944;42.590;12.630;2023-01-20T03:09:48;11.57;;;2.87;;
21567;SDS011;10944;42.590;12.630;2023-01-20T03:12:18;10.57;;;3.00;;
21567;SDS011;10944;42.590;12.630;2023-01-20T03:14:49;8.30;;;2.83;;
21567;SDS011;10944;42.590;12.630;2023-01-20T03:17:17;8.57;;;2.87;;
21567;SDS011;10944;42.590;12.630;2023-01-20T03:19:43;10.30;;;2.70;;
21567;SDS011;10944;42.590;12.630;2023-01-20T03:22:09;7.63;;;2.80;;
21567;SDS011;10944;42.590;12.630;2023-01-20T03:24:35;9.10;;;2.80;;
21567;SDS011;10944;42.590;12.630;2023-01-20T03:27:03;4.77;;;2.40;;
21567;SDS011;10944;42.590;12.630;2023-01-20T03:29:29;9.80;;;2.97;;
21567;SDS011;10944;42.590;12.630;2023-01-20T03:31:57;8.00;;;2.70;;
21567;SDS011;10944;42.590;12.630;2023-01-20T03:34:25;7.20;;;2.63;;
21567;SDS011;10944;42.590;12.630;2023-01-20T03:36:54;4.73;;;2.27;;
21567;SDS011;10944;42.590;12.630;2023-01-20T03:39:21;6.07;;;2.37;;
21567;SDS011;10944;42.590;12.630;2023-01-20T03:44:45;6.07;;;2.30;;
21567;SDS011;10944;42.590;12.630;2023-01-20T03:47:27;7.13;;;2.20;;
21567;SDS011;10944;42.590;12.630;2023-01-20T03:52:37;4.37;;;2.07;;
21567;SDS011;10944;42.590;12.630;2023-01-20T03:55:20;10.10;;;3.60;;
21567;SDS011;10944;42.590;12.630;2023-01-20T03:58:11;12.03;;;5.03;;
21567;SDS011;10944;42.590;12.630;2023-01-20T04:00:41;16.10;;;6.40;;
21567;SDS011;10944;42.590;12.630;2023-01-20T04:03:28;13.63;;;5.97;;
21567;SDS011;10944;42.590;12.630;2023-01-20T04:06:00;14.53;;;6.50;;
21567;SDS011;10944;42.590;12.630;2023-01-20T04:08:30;14.00;;;6.00;;
21567;SDS011;10944;42.590;12.630;2023-01-20T04:10:59;10.93;;;5.10;;
21567;SDS011;10944;42.590;12.630;2023-01-20T04:13:28;11.93;;;3.93;;
21567;SDS011;10944;42.590;12.630;2023-01-20T04:15:54;8.83;;;3.40;;
21567;SDS011;10944;42.590;12.630;2023-01-20T04:18:22;9.43;;;3.10;;
21567;SDS011;10944;42.590;12.630;2023-01-20T04:21:01;8.27;;;2.90;;
21567;SDS011;10944;42.590;12.630;2023-01-20T04:25:53;9.90;;;2.47;;
21567;SDS011;10944;42.590;12.630;2023-01-20T04:28:18;8.00;;;2.57;;
21567;SDS011;10944;42.590;12.630;2023-01-20T04:30:44;8.07;;;2.43;;
21567;SDS011;10944;42.590;12.630;2023-01-20T04:33:10;7.47;;;2.53;;
21567;SDS011;10944;42.590;12.630;2023-01-20T04:35:36;5.77;;;2.53;;
21567;SDS011;10944;42.590;12.630;2023-01-20T04:38:01;6.50;;;2.37;;
21567;SDS011;10944;42.590;12.630;2023-01-20T04:40:27;10.47;;;2.13;;
21567;SDS011;10944;42.590;12.630;2023-01-20T04:42:53;6.77;;;2.00;;
21567;SDS011;10944;42.590;12.630;2023-01-20T04:45:19;8.70;;;2.27;;
21567;SDS011;10944;42.590;12.630;2023-01-20T04:47:44;7.30;;;2.03;;
21567;SDS011;10944;42.590;12.630;2023-01-20T04:50:10;7.50;;;2.10;;
21567;SDS011;10944;42.590;12.630;2023-01-20T04:52:37;5.23;;;2.00;;
21567;SDS011;10944;42.590;12.630;2023-01-20T04:58:16;6.00;;;1.97;;
21567;SDS011;10944;42.590;12.630;2023-01-20T05:00:41;6.80;;;2.20;;
21567;SDS011;10944;42.590;12.630;2023-01-20T05:03:07;8.63;;;3.20;;
21567;SDS011;10944;42.590;12.630;2023-01-20T05:05:33;12.07;;;3.47;;
21567;SDS011;10944;42.590;12.630;2023-01-20T05:07:58;9.30;;;4.00;;
21567;SDS011;10944;42.590;12.630;2023-01-20T05:10:24;8.20;;;3.30;;
21567;SDS011;10944;42.590;12.630;2023-01-20T05:12:50;6.93;;;3.50;;
21567;SDS011;10944;42.590;12.630;2023-01-20T05:15:15;7.60;;;2.70;;
21567;SDS011;10944;42.590;12.630;2023-01-20T05:17:41;5.73;;;1.83;;
21567;SDS011;10944;42.590;12.630;2023-01-20T05:20:07;6.27;;;2.17;;
21567;SDS011;10944;42.590;12.630;2023-01-20T05:22:33;5.43;;;2.17;;
21567;SDS011;10944;42.590;12.630;2023-01-20T05:24:59;5.73;;;2.20;;
21567;SDS011;10944;42.590;12.630;2023-01-20T05:27:25;5.10;;;1.90;;
21567;SDS011;10944;42.590;12.630;2023-01-20T05:29:51;5.33;;;1.80;;
21567;SDS011;10944;42.590;12.630;2023-01-20T05:32:16;5.83;;;1.97;;
21567;SDS011;10944;42.590;12.630;2023-01-20T05:34:42;5.80;;;2.07;;
21567;SDS011;10944;42.590;12.630;2023-01-20T05:37:08;8.33;;;1.80;;
21567;SDS011;10944;42.590;12.630;2023-01-20T05:39:34;10.60;;;2.10;;
21567;SDS011;10944;42.590;12.630;2023-01-20T05:42:00;5.03;;;2.10;;
21567;SDS011;10944;42.590;12.630;2023-01-20T05:44:26;6.77;;;1.73;;
21567;SDS011;10944;42.590;12.630;2023-01-20T05:46:51;8.00;;;2.57;;
21567;SDS011;10944;42.590;12.630;2023-01-20T05:49:17;7.87;;;2.70;;
21567;SDS011;10944;42.590;12.630;2023-01-20T05:51:43;11.33;;;3.50;;
21567;SDS011;10944;42.590;12.630;2023-01-20T05:54:08;11.10;;;3.30;;
21567;SDS011;10944;42.590;12.630;2023-01-20T05:56:34;10.57;;;4.07;;
21567;SDS011;10944;42.590;12.630;2023-01-20T05:59:00;10.60;;;4.60;;
21567;SDS011;10944;42.590;12.630;2023-01-20T06:01:26;9.30;;;3.87;;
21567;SDS011;10944;42.590;12.630;2023-01-20T06:03:52;9.67;;;4.20;;
21567;SDS011;10944;42.590;12.630;2023-01-20T06:06:17;11.73;;;3.97;;
21567;SDS011;10944;42.590;12.630;2023-01-20T06:08:43;7.10;;;3.20;;
21567;SDS011;10944;42.590;12.630;2023-01-20T06:11:10;7.50;;;3.37;;
21567;SDS011;10944;42.590;12.630;2023-01-20T06:13:37;7.93;;;2.77;;
21567;SDS011;10944;42.590;12.630;2023-01-20T06:16:03;7.30;;;2.60;;
21567;SDS011;10944;42.590;12.630;2023-01-20T06:18:29;7.97;;;2.70;;
21567;SDS011;10944;42.590;12.630;2023-01-20T06:20:57;4.67;;;2.13;;
21567;SDS011;10944;42.590;12.630;2023-01-20T06:23:23;5.60;;;2.10;;
21567;SDS011;10944;42.590;12.630;2023-01-20T06:25:56;6.03;;;2.00;;
21567;SDS011;10944;42.590;12.630;2023-01-20T06:28:26;5.93;;;2.40;;
21567;SDS011;10944;42.590;12.630;2023-01-20T06:30:57;4.90;;;2.13;;
21567;SDS011;10944;42.590;12.630;2023-01-20T06:33:43;7.93;;;2.00;;
21567;SDS011;10944;42.590;12.630;2023-01-20T06:36:09;10.43;;;2.40;;
21567;SDS011;10944;42.590;12.630;2023-01-20T06:38:39;8.63;;;2.40;;
21567;SDS011;10944;42.590;12.630;2023-01-20T06:41:06;6.50;;;2.53;;
21567;SDS011;10944;42.590;12.630;2023-01-20T06:43:34;7.63;;;2.60;;
21567;SDS011;10944;42.590;12.630;2023-01-20T06:46:04;9.77;;;3.53;;
21567;SDS011;10944;42.590;12.630;2023-01-20T06:48:31;7.17;;;3.80;;
21567;SDS011;10944;42.590;12.630;2023-01-20T06:51:04;11.60;;;4.60;;
21567;SDS011;10944;42.590;12.630;2023-01-20T06:53:32;10.37;;;4.83;;
21567;SDS011;10944;42.590;12.630;2023-01-20T06:55:58;11.00;;;4.30;;
21567;SDS011;10944;42.590;12.630;2023-01-20T06:58:25;9.23;;;4.80;;
21567;SDS011;10944;42.590;12.630;2023-01-20T07:00:53;8.50;;;4.47;;
21567;SDS011;10944;42.590;12.630;2023-01-20T07:03:20;10.87;;;4.10;;
21567;SDS011;10944;42.590;12.630;2023-01-20T07:05:59;10.47;;;4.67;;
21567;SDS011;10944;42.590;12.630;2023-01-20T07:08:26;7.57;;;4.20;;
21567;SDS011;10944;42.590;12.630;2023-01-20T07:10:52;9.80;;;4.63;;
21567;SDS011;10944;42.590;12.630;2023-01-20T07:13:18;8.73;;;4.67;;
21567;SDS011;10944;42.590;12.630;2023-01-20T07:15:44;9.83;;;4.87;;
21567;SDS011;10944;42.590;12.630;2023-01-20T07:18:10;10.00;;;4.77;;
21567;SDS011;10944;42.590;12.630;2023-01-20T07:20:35;11.87;;;5.07;;
21567;SDS011;10944;42.590;12.630;2023-01-20T07:23:03;11.83;;;5.00;;
21567;SDS011;10944;42.590;12.630;2023-01-20T07:25:29;11.00;;;5.03;;
21567;SDS011;10944;42.590;12.630;2023-01-20T07:27:55;13.23;;;4.73;;
21567;SDS011;10944;42.590;12.630;2023-01-20T07:30:22;10.87;;;4.00;;
21567;SDS011;10944;42.590;12.630;2023-01-20T07:32:48;13.00;;;4.10;;
21567;SDS011;10944;42.590;12.630;2023-01-20T07:35:14;10.27;;;4.20;;
21567;SDS011;10944;42.590;12.630;2023-01-20T07:37:39;8.23;;;3.97;;
21567;SDS011;10944;42.590;12.630;2023-01-20T07:40:05;9.00;;;3.93;;
21567;SDS011;10944;42.590;12.630;2023-01-20T07:42:32;11.57;;;4.37;;
21567;SDS011;10944;42.590;12.630;2023-01-20T07:45:00;9.73;;;3.90;;
21567;SDS011;10944;42.590;12.630;2023-01-20T07:47:26;10.77;;;4.90;;
21567;SDS011;10944;42.590;12.630;2023-01-20T07:49:52;14.87;;;5.77;;
21567;SDS011;10944;42.590;12.630;2023-01-20T07:52:17;14.43;;;7.27;;
21567;SDS011;10944;42.590;12.630;2023-01-20T07:54:43;28.10;;;15.37;;
21567;SDS011;10944;42.590;12.630;2023-01-20T07:57:08;33.97;;;16.93;;
21567;SDS011;10944;42.590;12.630;2023-01-20T07:59:34;30.17;;;16.20;;
21567;SDS011;10944;42.590;12.630;2023-01-20T08:02:00;24.67;;;13.50;;
21567;SDS011;10944;42.590;12.630;2023-01-20T08:04:25;23.37;;;13.23;;
21567;SDS011;10944;42.590;12.630;2023-01-20T08:06:51;28.03;;;13.33;;
21567;SDS011;10944;42.590;12.630;2023-01-20T08:09:17;20.53;;;10.77;;
21567;SDS011;10944;42.590;12.630;2023-01-20T08:11:42;20.23;;;11.10;;
21567;SDS011;10944;42.590;12.630;2023-01-20T08:14:08;22.37;;;11.60;;
21567;SDS011;10944;42.590;12.630;2023-01-20T08:16:34;20.83;;;10.40;;
21567;SDS011;10944;42.590;12.630;2023-01-20T08:19:00;11.80;;;6.83;;
21567;SDS011;10944;42.590;12.630;2023-01-20T08:21:26;12.80;;;5.83;;
21567;SDS011;10944;42.590;12.630;2023-01-20T08:23:55;16.03;;;7.73;;
21567;SDS011;10944;42.590;12.630;2023-01-20T08:26:25;41.03;;;18.90;;
21567;SDS011;10944;42.590;12.630;2023-01-20T08:28:53;30.03;;;14.33;;
21567;SDS011;10944;42.590;12.630;2023-01-20T08:31:21;19.70;;;8.73;;
21567;SDS011;10944;42.590;12.630;2023-01-20T08:33:50;15.97;;;7.20;;
21567;SDS011;10944;42.590;12.630;2023-01-20T08:36:26;14.03;;;7.00;;
21567;SDS011;10944;42.590;12.630;2023-01-20T08:38:54;15.00;;;6.90;;
21567;SDS011;10944;42.590;12.630;2023-01-20T08:41:22;18.40;;;8.57;;
21567;SDS011;10944;42.590;12.630;2023-01-20T08:43:49;16.53;;;9.33;;
21567;SDS011;10944;42.590;12.630;2023-01-20T08:46:15;24.03;;;11.73;;
21567;SDS011;10944;42.590;12.630;2023-01-20T08:48:42;24.67;;;14.40;;
21567;SDS011;10944;42.590;12.630;2023-01-20T08:51:10;24.20;;;13.30;;
21567;SDS011;10944;42.590;12.630;2023-01-20T08:53:38;23.57;;;13.80;;
21567;SDS011;10944;42.590;12.630;2023-01-20T08:56:04;28.57;;;16.33;;
21567;SDS011;10944;42.590;12.630;2023-01-20T08:58:31;25.93;;;15.87;;
21567;SDS011;10944;42.590;12.630;2023-01-20T09:00:57;20.67;;;12.00;;
21567;SDS011;10944;42.590;12.630;2023-01-20T09:03:22;20.67;;;12.20;;
21567;SDS011;10944;42.590;12.630;2023-01-20T09:05:48;19.47;;;11.00;;
21567;SDS011;10944;42.590;12.630;2023-01-20T09:08:14;19.93;;;10.67;;
21567;SDS011;10944;42.590;12.630;2023-01-20T09:10:41;24.17;;;11.63;;
21567;SDS011;10944;42.590;12.630;2023-01-20T09:13:08;23.40;;;11.03;;
21567;SDS011;10944;42.590;12.630;2023-01-20T09:15:33;20.60;;;11.90;;
21567;SDS011;10944;42.590;12.630;2023-01-20T09:17:59;25.07;;;12.50;;
21567;SDS011;10944;42.590;12.630;2023-01-20T09:20:25;20.67;;;12.17;;
21567;SDS011;10944;42.590;12.630;2023-01-20T09:22:59;30.20;;;15.90;;
21567;SDS011;10944;42.590;12.630;2023-01-20T09:28:40;28.83;;;13.67;;
21567;SDS011;10944;42.590;12.630;2023-01-20T09:31:21;40.20;;;18.47;;
21567;SDS011;10944;42.590;12.630;2023-01-20T09:33:47;30.60;;;16.50;;
21567;SDS011;10944;42.590;12.630;2023-01-20T09:36:13;26.27;;;14.17;;
21567;SDS011;10944;42.590;12.630;2023-01-20T09:38:39;27.53;;;14.27;;
21567;SDS011;10944;42.590;12.630;2023-01-20T09:41:32;24.73;;;13.53;;
21567;SDS011;10944;42.590;12.630;2023-01-20T09:52:49;27.93;;;16.10;;
21567;SDS011;10944;42.590;12.630;2023-01-20T10:06:33;36.70;;;21.90;;
21567;SDS011;10944;42.590;12.630;2023-01-20T10:11:53;35.57;;;19.83;;
21567;SDS011;10944;42.590;12.630;2023-01-20T10:14:30;31.77;;;17.93;;
21567;SDS011;10944;42.590;12.630;2023-01-20T10:19:58;19.97;;;11.33;;
21567;SDS011;10944;42.590;12.630;2023-01-20T10:22:33;19.30;;;11.80;;
21567;SDS011;10944;42.590;12.630;2023-01-20T10:25:08;24.03;;;13.67;;
21567;SDS011;10944;42.590;12.630;2023-01-20T10:27:41;24.50;;;13.43;;
21567;SDS011;10944;42.590;12.630;2023-01-20T10:30:15;23.70;;;13.57;;
21567;SDS011;10944;42.590;12.630;2023-01-20T10:33:05;28.10;;;14.30;;
21567;SDS011;10944;42.590;12.630;2023-01-20T10:35:34;23.13;;;14.00;;
21567;SDS011;10944;42.590;12.630;2023-01-20T10:38:07;24.80;;;13.80;;
21567;SDS011;10944;42.590;12.630;2023-01-20T10:43:13;18.47;;;11.10;;
21567;SDS011;10944;42.590;12.630;2023-01-20T10:51:12;21.37;;;13.63;;
21567;SDS011;10944;42.590;12.630;2023-01-20T10:56:53;25.40;;;14.17;;
21567;SDS011;10944;42.590;12.630;2023-01-20T10:59:31;27.57;;;16.67;;
21567;SDS011;10944;42.590;12.630;2023-01-20T11:04:39;27.33;;;16.77;;
21567;SDS011;10944;42.590;12.630;2023-01-20T11:07:08;27.27;;;16.57;;
21567;SDS011;10944;42.590;12.630;2023-01-20T11:09:40;29.43;;;16.17;;
21567;SDS011;10944;42.590;12.630;2023-01-20T11:12:16;30.30;;;16.60;;
21567;SDS011;10944;42.590;12.630;2023-01-20T11:14:45;25.63;;;15.50;;
21567;SDS011;10944;42.590;12.630;2023-01-20T11:17:13;29.97;;;15.97;;
21567;SDS011;10944;42.590;12.630;2023-01-20T11:19:44;28.40;;;15.90;;
21567;SDS011;10944;42.590;12.630;2023-01-20T11:22:12;27.43;;;15.87;;
21567;SDS011;10944;42.590;12.630;2023-01-20T11:24:45;25.23;;;15.13;;
21567;SDS011;10944;42.590;12.630;2023-01-20T11:27:21;24.80;;;15.00;;
21567;SDS011;10944;42.590;12.630;2023-01-20T11:29:50;28.77;;;16.70;;
21567;SDS011;10944;42.590;12.630;2023-01-20T11:32:29;27.77;;;16.57;;
21567;SDS011;10944;42.590;12.630;2023-01-20T11:34:57;30.27;;;17.93;;
21567;SDS011;10944;42.590;12.630;2023-01-20T11:37:24;34.60;;;18.40;;
21567;SDS011;10944;42.590;12.630;2023-01-20T11:40:41;32.17;;;18.73;;
21567;SDS011;10944;42.590;12.630;2023-01-20T11:43:00;34.67;;;20.47;;
21567;SDS011;10944;42.590;12.630;2023-01-20T11:45:30;31.77;;;19.73;;
21567;SDS011;10944;42.590;12.630;2023-01-20T11:48:02;45.43;;;22.77;;
21567;SDS011;10944;42.590;12.630;2023-01-20T11:53:27;28.63;;;17.77;;
21567;SDS011;10944;42.590;12.630;2023-01-20T11:55:52;27.77;;;16.20;;
21567;SDS011;10944;42.590;12.630;2023-01-20T11:58:24;35.77;;;18.07;;
21567;SDS011;10944;42.590;12.630;2023-01-20T12:01:13;34.47;;;18.50;;
21567;SDS011;10944;42.590;12.630;2023-01-20T12:09:36;32.37;;;20.40;;
21567;SDS011;10944;42.590;12.630;2023-01-20T12:12:05;34.70;;;19.23;;
21567;SDS011;10944;42.590;12.630;2023-01-20T12:14:41;28.47;;;18.70;;
21567;SDS011;10944;42.590;12.630;2023-01-20T12:26:16;34.07;;;18.57;;
21567;SDS011;10944;42.590;12.630;2023-01-20T12:31:19;33.47;;;17.53;;
21567;SDS011;10944;42.590;12.630;2023-01-20T12:33:50;27.23;;;15.97;;
21567;SDS011;10944;42.590;12.630;2023-01-20T12:36:42;26.93;;;16.40;;
21567;SDS011;10944;42.590;12.630;2023-01-20T12:44:58;33.17;;;17.93;;
21567;SDS011;10944;42.590;12.630;2023-01-20T12:50:18;35.57;;;20.43;;
21567;SDS011;10944;42.590;12.630;2023-01-20T13:14:44;33.57;;;17.13;;
21567;SDS011;10944;42.590;12.630;2023-01-20T13:17:20;28.47;;;15.97;;
21567;SDS011;10944;42.590;12.630;2023-01-20T13:19:57;13.60;;;7.27;;
21567;SDS011;10944;42.590;12.630;2023-01-20T13:22:25;17.67;;;9.50;;
21567;SDS011;10944;42.590;12.630;2023-01-20T13:24:52;34.90;;;18.77;;
21567;SDS011;10944;42.590;12.630;2023-01-20T13:27:29;28.50;;;15.83;;
21567;SDS011;10944;42.590;12.630;2023-01-20T13:29:58;12.10;;;6.10;;
21567;SDS011;10944;42.590;12.630;2023-01-20T13:34:55;12.40;;;4.70;;
21567;SDS011;10944;42.590;12.630;2023-01-20T13:37:46;12.67;;;5.20;;
21567;SDS011;10944;42.590;12.630;2023-01-20T13:43:00;10.67;;;4.87;;
21567;SDS011;10944;42.590;12.630;2023-01-20T13:45:27;10.90;;;5.50;;
21567;SDS011;10944;42.590;12.630;2023-01-20T13:47:58;9.30;;;5.87;;
21567;SDS011;10944;42.590;12.630;2023-01-20T13:50:46;10.63;;;6.00;;
21567;SDS011;10944;42.590;12.630;2023-01-20T13:58:25;15.40;;;8.27;;
21567;SDS011;10944;42.590;12.630;2023-01-20T14:00:56;13.77;;;7.20;;
21567;SDS011;10944;42.590;12.630;2023-01-20T14:03:23;17.63;;;7.00;;
21567;SDS011;10944;42.590;12.630;2023-01-20T14:08:24;10.80;;;5.70;;
21567;SDS011;10944;42.590;12.630;2023-01-20T14:13:41;12.50;;;5.73;;
21567;SDS011;10944;42.590;12.630;2023-01-20T14:16:23;9.90;;;5.17;;
21567;SDS011;10944;42.590;12.630;2023-01-20T14:18:51;10.47;;;4.97;;
21567;SDS011;10944;42.590;12.630;2023-01-20T14:21:20;8.90;;;5.13;;
21567;SDS011;10944;42.590;12.630;2023-01-20T14:23:48;7.93;;;5.10;;
21567;SDS011;10944;42.590;12.630;2023-01-20T14:26:28;8.70;;;5.23;;
21567;SDS011;10944;42.590;12.630;2023-01-20T14:28:56;8.77;;;5.20;;
21567;SDS011;10944;42.590;12.630;2023-01-20T14:36:31;14.10;;;6.67;;
21567;SDS011;10944;42.590;12.630;2023-01-20T14:38:58;12.00;;;6.13;;
21567;SDS011;10944;42.590;12.630;2023-01-20T14:41:27;10.30;;;5.40;;
21567;SDS011;10944;42.590;12.630;2023-01-20T14:43:55;9.93;;;5.47;;
21567;SDS011;10944;42.590;12.630;2023-01-20T14:46:22;9.40;;;4.63;;
21567;SDS011;10944;42.590;12.630;2023-01-20T14:49:04;9.37;;;4.60;;
21567;SDS011;10944;42.590;12.630;2023-01-20T14:51:30;8.00;;;4.83;;
21567;SDS011;10944;42.590;12.630;2023-01-20T14:57:03;8.90;;;4.90;;
21567;SDS011;10944;42.590;12.630;2023-01-20T14:59:37;9.97;;;4.93;;
21567;SDS011;10944;42.590;12.630;2023-01-20T15:02:04;10.00;;;5.20;;
21567;SDS011;10944;42.590;12.630;2023-01-20T15:04:38;9.60;;;4.80;;
21567;SDS011;10944;42.590;12.630;2023-01-20T15:07:04;8.90;;;4.93;;
21567;SDS011;10944;42.590;12.630;2023-01-20T15:09:30;8.70;;;4.40;;
21567;SDS011;10944;42.590;12.630;2023-01-20T15:17:31;8.30;;;4.67;;
21567;SDS011;10944;42.590;12.630;2023-01-20T15:19:57;7.97;;;4.57;;
21567;SDS011;10944;42.590;12.630;2023-01-20T15:22:22;9.47;;;4.70;;
21567;SDS011;10944;42.590;12.630;2023-01-20T15:24:50;7.93;;;4.60;;
21567;SDS011;10944;42.590;12.630;2023-01-20T15:27:21;7.83;;;4.40;;
21567;SDS011;10944;42.590;12.630;2023-01-20T15:32:38;7.70;;;3.97;;
21567;SDS011;10944;42.590;12.630;2023-01-20T15:35:04;9.37;;;4.67;;
21567;SDS011;10944;42.590;12.630;2023-01-20T15:37:30;10.80;;;4.60;;
21567;SDS011;10944;42.590;12.630;2023-01-20T15:39:55;9.40;;;4.73;;
21567;SDS011;10944;42.590;12.630;2023-01-20T15:42:23;9.77;;;4.70;;
21567;SDS011;10944;42.590;12.630;2023-01-20T15:44:48;8.60;;;4.47;;
21567;SDS011;10944;42.590;12.630;2023-01-20T15:49:44;9.13;;;4.50;;
21567;SDS011;10944;42.590;12.630;2023-01-20T15:52:10;10.67;;;4.10;;
21567;SDS011;10944;42.590;12.630;2023-01-20T15:54:37;9.40;;;4.37;;
21567;SDS011;10944;42.590;12.630;2023-01-20T15:57:04;8.87;;;4.13;;
21567;SDS011;10944;42.590;12.630;2023-01-20T15:59:38;8.73;;;4.00;;
21567;SDS011;10944;42.590;12.630;2023-01-20T16:02:18;7.33;;;3.60;;
21567;SDS011;10944;42.590;12.630;2023-01-20T16:04:45;7.80;;;3.90;;
21567;SDS011;10944;42.590;12.630;2023-01-20T16:07:12;8.57;;;4.30;;
21567;SDS011;10944;42.590;12.630;2023-01-20T16:09:40;7.77;;;4.10;;
21567;SDS011;10944;42.590;12.630;2023-01-20T16:12:08;8.80;;;3.90;;
21567;SDS011;10944;42.590;12.630;2023-01-20T16:14:39;10.27;;;3.97;;
21567;SDS011;10944;42.590;12.630;2023-01-20T16:17:09;8.70;;;4.10;;
21567;SDS011;10944;42.590;12.630;2023-01-20T16:19:38;8.00;;;4.27;;
21567;SDS011;10944;42.590;12.630;2023-01-20T16:22:04;9.10;;;3.80;;
21567;SDS011;10944;42.590;12.630;2023-01-20T16:24:31;6.63;;;3.40;;
21567;SDS011;10944;42.590;12.630;2023-01-20T16:26:57;7.03;;;3.40;;
21567;SDS011;10944;42.590;12.630;2023-01-20T16:29:23;9.40;;;3.30;;
21567;SDS011;10944;42.590;12.630;2023-01-20T16:31:52;8.17;;;4.30;;
21567;SDS011;10944;42.590;12.630;2023-01-20T16:34:17;7.43;;;3.80;;
21567;SDS011;10944;42.590;12.630;2023-01-20T16:36:43;7.60;;;4.27;;
21567;SDS011;10944;42.590;12.630;2023-01-20T16:39:09;8.17;;;3.87;;
21567;SDS011;10944;42.590;12.630;2023-01-20T16:41:35;9.87;;;4.20;;
21567;SDS011;10944;42.590;12.630;2023-01-20T16:44:01;7.63;;;3.90;;
21567;SDS011;10944;42.590;12.630;2023-01-20T16:46:28;7.60;;;4.20;;
21567;SDS011;10944;42.590;12.630;2023-01-20T16:48:55;7.97;;;4.37;;
21567;SDS011;10944;42.590;12.630;2023-01-20T16:51:26;11.07;;;4.90;;
21567;SDS011;10944;42.590;12.630;2023-01-20T16:53:53;10.70;;;5.67;;
21567;SDS011;10944;42.590;12.630;2023-01-20T16:56:24;9.63;;;5.10;;
21567;SDS011;10944;42.590;12.630;2023-01-20T16:58:52;7.80;;;4.53;;
21567;SDS011;10944;42.590;12.630;2023-01-20T17:01:21;8.80;;;4.50;;
21567;SDS011;10944;42.590;12.630;2023-01-20T17:03:49;7.67;;;4.30;;
21567;SDS011;10944;42.590;12.630;2023-01-20T17:06:23;6.70;;;4.27;;
21567;SDS011;10944;42.590;12.630;2023-01-20T17:08:52;7.53;;;4.20;;
21567;SDS011;10944;42.590;12.630;2023-01-20T17:11:19;6.87;;;4.30;;
21567;SDS011;10944;42.590;12.630;2023-01-20T17:13:47;6.33;;;3.77;;
21567;SDS011;10944;42.590;12.630;2023-01-20T17:16:13;5.63;;;3.83;;
21567;SDS011;10944;42.590;12.630;2023-01-20T17:18:39;7.83;;;4.33;;
21567;SDS011;10944;42.590;12.630;2023-01-20T17:21:11;6.27;;;3.80;;